Accueil
METAR-TAF:

METAR-TAF

Aéroports :

Dijon, France

Aéroport de Dijon-Bourgogne

latitude: 47-16N, longitude: 005-05E, altitude: 222 m

Observation

Le bulletin a été fait il y a 33 minutes, à 13:00 UTC
Vent 8 kt de ouest
Température 11°C
Humidité 71%
Pression 1020 hPa
Visibilité 10 km ou plus
Quelques nuages à une hauteur de 3200 ft
Nuages épars à une hauteur de 4800 ft
Nuages fragmentés à une hauteur de 10000 ft

METAR: LFSD 221300Z AUTO 26008KT 9999 FEW032 SCT048 BKN100 11/06 Q1020

Heure: 15:33 (13:33 UTC)


TAF: absent

Observations et prévisions météorologiques de plus de 4000 aéroports (messages METAR et TAF).

Les stations disponibles sont représentées par des disques jaunes et rouges sur la carte.

Passer la souris dessus pour voir le nom de la station.

Cliquer dessus pour voir les observations et prévisions météorologiques.

Pour changer de carte: cliquez sur les boutons verts avec une croix noire pour zoomer, sur le bouton vert avec un tiret pour effectuer un zoom arrière, ou sur les flèches vertes pour les cartes adjacentes.


METAR-TAF: